Albany, New York
Traffic Map
Current Weather Conditions
Albany, New York
Scattered Clouds
Scattered Clouds
27°
Feels Like: 27°
Wind Chill: 27° Ceiling: Unl
Heat Index: 27° Visibility: 10mi
Dew Point: 16° Wind: 0mph
Humidity: 50% Direction: ° ()
Pressure: 30.16in Gusts: 0mph
Raw Report DataKALB 061551Z 00000KT 10SM FEW044 SCT260 27/16 A3016 RMK AO2 SLP212 T02670156
Traffic Incident Summary
Active as of:
Severity:
Category:
InformationThere was an issue retrieving the traffic information for this location. Please try a different location or try again shortly.
Advertisements
Track Severe Weather on mobile